Time;durP1;ratioP1;P1;durP2;ratioP2;P2;SDS_P1;SDS_P2;PMS_P1;PMS_P2;Temp;Humidity;BMP_temperature;BMP_pressure;BME280_temperature;BME280_humidity;BME280_pressure;Samples;Min_cycle;Max_cycle;Signal;HPM_P1;HPM_P2
2022/02/01 00:00:11;;;;;;;10.40;4.68;;;-2.10;99.90;;;-2.39;77.02;96731.16;172469;28;1196;-77
2022/02/01 00:00:23;;;;;;;10.38;4.30;;;-2.20;99.90;;;-2.34;77.29;96741.34;173380;28;1209;-77
2022/02/01 00:00:41;;;;;;;11.50;4.39;;;-2.20;99.90;;;-2.39;76.91;96732.97;173176;28;1438;-77
2022/02/01 00:01:00;;;;;;;11.13;4.60;;;-2.20;99.90;;;-2.42;76.91;96727.94;173804;28;1413;-77
2022/02/01 00:01:46;;;;;;;10.84;4.80;;;-2.20;99.90;;;-2.32;76.99;96744.66;171084;28;1185;-76
2022/02/01 00:02:00;;;;;;;12.32;4.65;;;-2.20;99.90;;;-2.31;77.24;96754.25;169884;29;1115;-77
2022/02/01 00:02:11;;;;;;;11.76;4.40;;;-2.20;99.90;;;-2.37;77.28;96744.19;170077;29;1365;-76
2022/02/01 00:02:28;;;;;;;10.38;4.35;;;-2.20;99.90;;;-2.39;77.11;96743.50;172567;28;2699;-77
2022/02/01 00:02:59;;;;;;;10.61;4.39;;;-2.20;99.90;;;-2.46;76.80;96727.34;172335;28;1441;-76
2022/02/01 00:03:02;;;;;;;12.10;4.72;;;-2.20;99.90;;;-2.46;77.25;96732.63;173146;28;1206;-76
2022/02/01 00:03:14;;;;;;;11.28;4.48;;;-2.20;99.90;;;-2.40;77.16;96750.56;172961;28;1837;-76
2022/02/01 00:03:21;;;;;;;10.61;4.43;;;-2.20;99.90;;;-2.37;77.54;96750.31;172021;28;1243;-76
2022/02/01 00:03:33;;;;;;;9.73;4.33;;;-2.20;99.90;;;-2.55;77.62;96717.56;173487;28;1270;-77
2022/02/01 00:03:41;;;;;;;10.62;4.24;;;-2.20;99.90;;;-2.40;77.71;96747.09;172583;28;1216;-77
2022/02/01 00:03:49;;;;;;;10.10;4.08;;;-2.20;99.90;;;-2.40;77.61;96744.47;171870;28;1475;-76
2022/02/01 00:04:01;;;;;;;10.21;4.06;;;-2.20;99.90;;;-2.38;77.27;96746.00;172392;28;1511;-75
2022/02/01 00:04:15;;;;;;;9.47;3.99;;;-2.20;99.90;;;-2.36;77.23;96749.34;173071;28;1529;-76
2022/02/01 00:04:34;;;;;;;10.31;4.21;;;-2.20;99.90;;;-2.44;77.56;96735.16;172828;28;1366;-76
2022/02/01 00:05:13;;;;;;;8.86;4.04;;;-2.20;99.90;;;-2.34;78.24;96754.50;173379;28;1188;-77
2022/02/01 00:05:33;;;;;;;7.13;3.66;;;-2.20;99.90;;;-2.37;78.22;96746.84;172511;28;1434;-78
2022/02/01 00:06:09;;;;;;;8.91;4.01;;;-2.20;99.90;;;-2.40;77.87;96747.09;171810;28;1334;-77
2022/02/01 00:06:28;;;;;;;9.93;4.14;;;-2.20;99.90;;;-2.38;77.36;96753.91;171627;28;1223;-77
2022/02/01 00:07:39;;;;;;;10.55;4.17;;;-2.20;99.90;;;-2.50;77.68;96746.19;172616;28;956;-77
2022/02/01 00:08:07;;;;;;;10.16;4.21;;;-2.20;99.90;;;-2.64;77.95;96728.84;171938;28;1218;-77
2022/02/01 00:08:43;;;;;;;11.00;3.72;;;-2.20;99.90;;;-2.59;78.12;96724.06;174631;28;1114;-77
2022/02/01 00:09:26;;;;;;;9.26;3.91;;;-2.10;99.90;;;-2.37;78.36;96754.75;172260;28;1181;-77
2022/02/01 00:10:21;;;;;;;9.01;3.94;;;-2.20;99.90;;;-2.42;78.21;96755.13;174631;28;1166;-77
2022/02/01 00:11:11;;;;;;;9.98;3.81;;;-2.20;99.90;;;-2.39;78.41;96746.97;173318;28;1288;-77
2022/02/01 00:13:29;;;;;;;10.74;4.20;;;-2.20;99.90;;;-2.34;78.37;96738.69;173586;28;1330;-78
2022/02/01 00:14:23;;;;;;;10.88;4.36;;;-2.20;99.90;;;-2.35;78.02;96742.28;171883;28;1197;-79
2022/02/01 00:19:02;;;;;;;11.19;4.35;;;-2.20;99.90;;;-2.42;78.74;96747.22;173253;28;1205;-79
2022/02/01 00:34:16;;;;;;;11.71;4.86;;;-2.40;99.90;;;-2.65;77.80;96738.56;173165;28;1211;-79
2022/02/01 00:35:45;;;;;;;11.76;4.50;;;-2.40;99.90;;;-2.58;77.81;96763.44;172728;28;1200;-79
2022/02/01 00:36:23;;;;;;;12.41;4.99;;;-2.40;99.90;;;-2.60;77.57;96757.47;172343;28;1918;-79
2022/02/01 00:36:34;;;;;;;12.24;4.95;;;-2.40;99.90;;;-2.61;77.88;96754.94;173256;28;1555;-79
2022/02/01 00:36:48;;;;;;;12.30;4.84;;;-2.40;99.90;;;-2.66;78.02;96751.84;174004;28;1407;-79
2022/02/01 00:37:00;;;;;;;11.15;4.41;;;-2.40;99.90;;;-2.75;77.99;96736.78;171664;28;1257;-79
2022/02/01 00:37:11;;;;;;;10.34;4.48;;;-2.40;99.90;;;-2.64;77.91;96752.53;171817;28;1216;-79
2022/02/01 00:37:20;;;;;;;9.82;4.70;;;-2.40;99.90;;;-2.72;77.68;96737.38;174583;28;1211;-79
2022/02/01 00:37:30;;;;;;;10.49;4.74;;;-2.40;99.90;;;-2.69;78.05;96742.38;173889;28;1377;-79
2022/02/01 00:37:48;;;;;;;10.93;4.67;;;-2.40;99.90;;;-2.60;77.89;96759.25;172358;28;1520;-79
2022/02/01 00:38:27;;;;;;;14.11;5.68;;;-2.40;99.90;;;-2.69;77.77;96749.44;172738;28;1203;-79
2022/02/01 00:39:12;;;;;;;24.66;9.54;;;-2.40;99.90;;;-2.65;77.85;96759.63;171355;28;1241;-79
2022/02/01 00:39:28;;;;;;;18.77;7.40;;;-2.40;99.90;;;-2.74;77.75;96744.56;171737;28;1426;-79
2022/02/01 00:39:42;;;;;;;16.09;6.34;;;-2.40;99.90;;;-2.65;78.22;96762.28;170993;28;1509;-79
2022/02/01 00:39:56;;;;;;;15.00;5.34;;;-2.40;99.90;;;-2.77;78.60;96742.19;173631;28;1421;-79
2022/02/01 00:40:09;;;;;;;15.48;5.01;;;-2.40;99.90;;;-2.69;78.44;96754.72;172565;28;2751;-79
2022/02/01 00:40:15;;;;;;;13.18;4.81;;;-2.50;99.90;;;-2.66;78.84;96762.38;173146;28;1527;-79
2022/02/01 00:40:22;;;;;;;10.53;4.83;;;-2.40;99.90;;;-2.61;78.86;96773.41;172017;28;1402;-79
2022/02/01 00:40:28;;;;;;;11.10;5.00;;;-2.40;99.90;;;-2.66;79.26;96765.03;172328;28;1360;-79
2022/02/01 00:40:34;;;;;;;11.02;4.96;;;-2.40;99.90;;;-2.63;78.88;96762.13;172549;28;1565;-80
2022/02/01 00:40:40;;;;;;;13.05;5.15;;;-2.40;99.90;;;-2.65;78.88;96758.78;172416;28;1456;-79
2022/02/01 00:40:53;;;;;;;13.43;5.00;;;-2.40;99.90;;;-2.74;79.03;96746.34;172467;28;1412;-80
2022/02/01 00:41:04;;;;;;;13.71;4.79;;;-2.40;99.90;;;-2.58;78.99;96766.06;172473;28;1525;-79
2022/02/01 00:41:12;;;;;;;11.43;4.63;;;-2.40;99.90;;;-2.57;78.83;96772.19;173100;28;978;-79
2022/02/01 00:41:19;;;;;;;12.12;4.68;;;-2.40;99.90;;;-2.74;78.70;96743.72;173195;28;1440;-79
2022/02/01 00:41:34;;;;;;;11.60;4.67;;;-2.40;99.90;;;-2.63;79.03;96757.69;172946;28;1412;-79
2022/02/01 00:41:47;;;;;;;11.88;4.69;;;-2.40;99.90;;;-2.59;78.94;96759.13;172545;28;1356;-79
2022/02/01 00:41:54;;;;;;;12.55;4.76;;;-2.40;99.90;;;-2.58;79.12;96779.25;172523;28;1223;-79
2022/02/01 00:42:00;;;;;;;13.05;4.70;;;-2.40;99.90;;;-2.63;78.90;96755.06;172465;28;1188;-79
2022/02/01 00:42:06;;;;;;;14.34;4.54;;;-2.40;99.90;;;-2.53;78.74;96778.03;173804;28;1484;-79
2022/02/01 00:42:15;;;;;;;14.18;4.43;;;-2.40;99.90;;;-2.71;78.66;96744.31;173828;28;1354;-79
2022/02/01 00:42:21;;;;;;;12.81;4.23;;;-2.40;99.90;;;-2.66;78.23;96752.69;172518;28;1568;-79
2022/02/01 00:42:27;;;;;;;12.32;4.30;;;-2.40;99.90;;;-2.73;78.21;96751.50;173816;28;1441;-79
2022/02/01 00:42:33;;;;;;;12.25;4.32;;;-2.40;99.90;;;-2.69;78.14;96752.91;173881;28;1472;-79
2022/02/01 00:42:40;;;;;;;12.03;4.50;;;-2.40;99.90;;;-2.65;78.32;96770.19;173591;28;1482;-78
2022/02/01 00:42:47;;;;;;;14.06;4.74;;;-2.40;99.90;;;-2.58;78.25;96776.59;172486;28;1508;-79
2022/02/01 00:42:53;;;;;;;16.10;4.90;;;-2.40;99.90;;;-2.72;78.31;96752.34;172673;28;1396;-78
2022/02/01 00:43:00;;;;;;;16.75;4.85;;;-2.40;99.90;;;-2.71;77.95;96752.22;172524;28;1316;-79
2022/02/01 00:43:07;;;;;;;17.90;5.26;;;-2.40;99.90;;;-2.63;78.55;96767.41;173312;28;1498;-78
2022/02/01 00:43:13;;;;;;;15.02;5.08;;;-2.40;99.90;;;-2.61;78.76;96784.78;173052;28;1412;-79
2022/02/01 00:43:20;;;;;;;16.07;5.40;;;-2.40;99.90;;;-2.56;78.47;96779.13;172592;28;1310;-78
2022/02/01 00:43:26;;;;;;;14.16;5.40;;;-2.40;99.90;;;-2.72;78.67;96754.97;173273;28;1168;-80
2022/02/01 00:43:33;;;;;;;14.50;5.25;;;-2.40;99.90;;;-2.69;78.94;96758.19;173283;28;1370;-79
2022/02/01 00:43:39;;;;;;;14.48;5.18;;;-2.40;99.90;;;-2.70;78.75;96763.59;173231;28;946;-80
2022/02/01 00:43:45;;;;;;;14.40;5.25;;;-2.40;99.90;;;-2.62;78.81;96764.66;173631;28;1279;-79
2022/02/01 00:43:51;;;;;;;13.45;4.75;;;-2.40;99.90;;;-2.56;78.68;96773.84;173571;28;1235;-80
2022/02/01 00:43:59;;;;;;;11.87;4.60;;;-2.40;99.90;;;-2.59;78.98;96768.84;173354;28;1334;-79
2022/02/01 00:44:05;;;;;;;11.43;4.60;;;-2.40;99.90;;;-2.70;79.03;96751.28;173267;28;1420;-79
2022/02/01 00:44:11;;;;;;;10.60;4.37;;;-2.40;99.90;;;-2.58;79.11;96771.34;172853;28;1234;-80
2022/02/01 00:44:17;;;;;;;11.43;4.22;;;-2.40;99.90;;;-2.66;79.10;96757.97;173208;28;1374;-79
2022/02/01 00:44:25;;;;;;;11.13;4.32;;;-2.40;99.90;;;-2.55;79.43;96774.69;173177;28;1299;-79
2022/02/01 00:44:30;;;;;;;11.72;4.17;;;-2.40;99.90;;;-2.59;79.05;96764.38;173105;28;1362;-79
2022/02/01 00:44:39;;;;;;;11.25;4.15;;;-2.40;99.90;;;-2.55;79.41;96770.28;172533;28;1233;-80
2022/02/01 00:44:45;;;;;;;10.50;4.38;;;-2.40;99.90;;;-2.70;79.09;96739.91;172597;28;1434;-79
2022/02/01 00:44:51;;;;;;;10.20;4.40;;;-2.40;99.90;;;-2.60;79.12;96762.75;171989;28;1197;-79
2022/02/01 00:44:57;;;;;;;9.60;4.40;;;-2.40;99.90;;;-2.81;78.85;96732.00;172403;28;1279;-79
2022/02/01 00:45:08;;;;;;;10.60;4.28;;;-2.40;99.90;;;-2.55;78.49;96772.06;172575;28;1303;-79
2022/02/01 00:45:14;;;;;;;12.64;4.31;;;-2.40;99.90;;;-2.67;78.00;96756.28;172243;28;2752;-80
2022/02/01 00:45:20;;;;;;;12.67;4.23;;;-2.40;99.90;;;-2.62;78.35;96764.66;173657;28;902;-79
2022/02/01 00:45:26;;;;;;;14.38;4.38;;;-2.40;99.90;;;-2.77;78.52;96738.72;171983;28;820;-80
2022/02/01 00:45:34;;;;;;;14.17;4.47;;;-2.40;99.90;;;-2.69;78.39;96752.09;172089;28;1258;-78
2022/02/01 00:45:39;;;;;;;13.93;4.50;;;-2.40;99.90;;;-2.60;78.32;96773.28;173802;28;1459;-79
2022/02/01 00:45:46;;;;;;;14.07;4.60;;;-2.40;99.90;;;-2.78;78.86;96743.13;172282;28;1335;-79
2022/02/01 00:45:51;;;;;;;14.37;4.63;;;-2.40;99.90;;;-2.65;78.94;96767.53;172714;28;1006;-78
2022/02/01 00:46:02;;;;;;;12.95;4.57;;;-2.40;99.90;;;-2.73;79.16;96746.22;172863;28;1477;-79
2022/02/01 00:46:08;;;;;;;12.44;4.61;;;-2.40;99.90;;;-2.71;79.15;96754.84;173280;28;1152;-80
2022/02/01 00:46:14;;;;;;;12.02;4.45;;;-2.40;99.90;;;-2.68;79.44;96753.75;173357;28;1623;-79
2022/02/01 00:46:20;;;;;;;12.18;4.53;;;-2.40;99.90;;;-2.66;79.10;96757.97;172615;28;991;-80
2022/02/01 00:46:26;;;;;;;12.77;4.70;;;-2.40;99.90;;;-2.72;79.35;96745.28;172259;28;1084;-78
2022/02/01 00:46:34;;;;;;;12.36;4.66;;;-2.40;99.90;;;-2.93;79.09;96725.94;172393;28;2207;-79
2022/02/01 00:46:40;;;;;;;11.60;4.70;;;-2.40;99.90;;;-3.06;79.04;96691.03;172221;28;1068;-80
2022/02/01 00:46:47;;;;;;;11.65;4.68;;;-2.40;99.90;;;-2.79;79.25;96745.88;171903;28;915;-80
2022/02/01 00:46:53;;;;;;;11.08;4.44;;;-2.40;99.90;;;-3.02;79.18;96706.44;172837;28;1431;-79
2022/02/01 00:46:59;;;;;;;9.93;4.30;;;-2.40;99.90;;;-2.79;79.09;96746.72;172548;28;1311;-80
2022/02/01 00:47:07;;;;;;;10.33;4.20;;;-2.40;99.90;;;-2.87;79.41;96728.06;172928;28;1429;-79
2022/02/01 00:47:13;;;;;;;10.38;4.15;;;-2.40;99.90;;;-2.99;79.27;96702.72;172906;28;1337;-79
2022/02/01 00:47:19;;;;;;;10.63;4.18;;;-2.40;99.90;;;-3.07;79.11;96690.19;172886;28;1366;-79
2022/02/01 00:47:25;;;;;;;11.15;4.00;;;-2.40;99.90;;;-3.24;79.56;96659.09;172535;28;1461;-80
2022/02/01 00:47:31;;;;;;;10.63;3.90;;;-2.40;99.90;;;-2.73;79.75;96740.13;173225;28;1244;-79
2022/02/01 00:47:37;;;;;;;11.70;3.97;;;-2.40;99.90;;;-2.70;79.32;96750.44;172540;28;875;-79
2022/02/01 00:47:43;;;;;;;11.55;4.03;;;-2.50;99.90;;;-2.63;79.82;96762.97;172530;28;1358;-79
2022/02/01 00:47:50;;;;;;;12.97;4.30;;;-2.40;99.90;;;-2.72;79.34;96750.53;172414;28;1399;-78
2022/02/01 00:47:55;;;;;;;12.80;4.37;;;-2.40;99.90;;;-2.73;79.43;96740.97;172162;28;1541;-79
2022/02/01 00:48:02;;;;;;;12.82;4.40;;;-2.40;99.90;;;-2.98;79.52;96706.19;173149;28;1322;-79
2022/02/01 00:48:08;;;;;;;11.50;4.30;;;-2.40;99.90;;;-2.58;79.64;96770.50;173189;28;1418;-80
2022/02/01 00:48:15;;;;;;;11.07;4.22;;;-2.40;99.90;;;-2.85;79.50;96723.50;172571;28;1331;-79
2022/02/01 00:48:21;;;;;;;9.63;4.00;;;-2.40;99.90;;;-2.70;79.37;96750.44;173912;28;1313;-79
2022/02/01 00:48:28;;;;;;;9.88;4.03;;;-2.40;99.90;;;-2.79;79.18;96730.91;174451;28;1175;-79
2022/02/01 00:48:34;;;;;;;10.60;4.06;;;-2.40;99.90;;;-2.72;79.38;96741.81;173890;28;1499;-78
2022/02/01 00:48:40;;;;;;;11.75;4.43;;;-2.40;99.90;;;-2.64;79.23;96755.19;173062;28;1861;-79
2022/02/01 00:48:46;;;;;;;12.82;4.70;;;-2.40;99.90;;;-2.88;79.04;96720.28;173191;28;1239;-80
2022/02/01 00:48:52;;;;;;;14.38;4.82;;;-2.40;99.90;;;-2.62;78.88;96764.66;172548;28;974;-79
2022/02/01 00:48:58;;;;;;;15.90;5.10;;;-2.40;99.90;;;-2.67;79.30;96758.91;172522;28;1350;-79
2022/02/01 00:49:04;;;;;;;16.50;5.13;;;-2.40;99.90;;;-2.79;78.93;96733.56;173212;28;816;-79
2022/02/01 00:49:10;;;;;;;16.00;4.80;;;-2.40;99.90;;;-2.59;78.94;96763.59;173122;28;1272;-79
2022/02/01 00:49:16;;;;;;;14.83;4.60;;;-2.40;99.90;;;-2.80;79.13;96736.34;172513;28;1405;-79
2022/02/01 00:49:22;;;;;;;13.65;4.70;;;-2.40;99.90;;;-2.84;79.10;96737.50;171754;28;1366;-79
2022/02/01 00:49:29;;;;;;;12.82;4.78;;;-2.40;99.90;;;-2.70;79.01;96759.16;173133;28;1389;-80
2022/02/01 00:49:36;;;;;;;11.22;4.74;;;-2.40;99.90;;;-2.68;79.31;96759.03;172487;28;1071;-79
2022/02/01 00:49:43;;;;;;;10.58;4.64;;;-2.40;99.90;;;-2.69;79.40;96766.09;173204;28;1338;-79
2022/02/01 00:49:49;;;;;;;10.47;4.55;;;-2.40;99.90;;;-2.91;79.31;96717.91;172326;28;1473;-79
2022/02/01 00:49:55;;;;;;;9.13;4.20;;;-2.40;99.90;;;-2.70;79.43;96760.97;172439;28;1244;-79
2022/02/01 00:50:01;;;;;;;9.93;4.17;;;-2.40;99.90;;;-2.75;79.29;96753.44;172744;28;1145;-80
2022/02/01 00:50:11;;;;;;;10.63;4.18;;;-2.40;99.90;;;-2.90;79.19;96733.56;173962;28;808;-79
2022/02/01 00:50:17;;;;;;;11.63;4.41;;;-2.40;99.90;;;-2.74;79.52;96757.72;173899;28;1432;-79
2022/02/01 00:50:23;;;;;;;12.60;4.67;;;-2.50;99.90;;;-2.70;79.04;96771.50;175274;28;1269;-80
2022/02/01 00:50:29;;;;;;;13.07;4.80;;;-2.50;99.90;;;-2.74;79.24;96770.88;173718;28;1072;-79
2022/02/01 00:50:35;;;;;;;12.57;4.88;;;-2.50;99.90;;;-2.67;78.93;96780.00;174661;28;1334;-79
2022/02/01 00:50:41;;;;;;;12.93;4.78;;;-2.50;99.90;;;-2.88;79.12;96742.19;172521;28;1308;-79
2022/02/01 00:50:47;;;;;;;12.77;4.72;;;-2.50;99.90;;;-2.97;79.28;96719.25;173010;28;1165;-79
2022/02/01 00:50:53;;;;;;;12.23;4.70;;;-2.50;99.90;;;-2.70;79.07;96774.13;173684;28;1338;-78
2022/02/01 00:50:59;;;;;;;11.03;4.47;;;-2.50;99.90;;;-3.05;79.30;96722.47;174477;28;1290;-79
2022/02/01 00:51:11;;;;;;;10.80;4.50;;;-2.50;99.90;;;-2.70;79.22;96771.50;172115;28;1426;-78
2022/02/01 00:51:18;;;;;;;9.38;4.46;;;-2.40;99.90;;;-2.72;79.12;96773.41;173322;28;1347;-79
2022/02/01 00:51:24;;;;;;;9.88;4.36;;;-2.50;99.90;;;-2.78;79.28;96769.47;173305;28;871;-79
2022/02/01 00:51:30;;;;;;;10.55;4.40;;;-2.50;99.90;;;-2.80;79.59;96763.50;173121;28;1319;-79
2022/02/01 00:51:36;;;;;;;10.15;4.15;;;-2.50;99.90;;;-3.18;79.25;96702.53;173222;28;1306;-79
2022/02/01 00:51:41;;;;;;;11.63;4.20;;;-2.50;99.90;;;-2.85;79.54;96757.75;173132;28;1449;-79
2022/02/01 00:51:47;;;;;;;11.85;4.20;;;-2.50;99.90;;;-2.89;79.84;96755.47;173824;28;1257;-79
2022/02/01 00:51:53;;;;;;;11.77;4.18;;;-2.50;99.90;;;-2.93;79.72;96748.78;172534;28;1302;-78
2022/02/01 00:52:00;;;;;;;11.43;4.30;;;-2.50;99.90;;;-2.88;79.93;96759.78;173612;28;1318;-79
2022/02/01 00:52:06;;;;;;;13.03;4.83;;;-2.50;99.90;;;-2.92;79.84;96753.09;174040;28;922;-80
2022/02/01 00:52:12;;;;;;;12.18;4.75;;;-2.50;99.90;;;-2.80;79.48;96776.69;173013;28;1066;-79
2022/02/01 00:52:18;;;;;;;12.35;4.70;;;-2.50;99.90;;;-3.02;79.34;96737.22;172389;28;1316;-80
2022/02/01 00:52:27;;;;;;;13.07;4.63;;;-2.50;99.90;;;-3.03;79.66;96736.38;172993;28;1443;-79
2022/02/01 00:52:33;;;;;;;12.67;4.23;;;-2.50;99.90;;;-3.16;79.61;96714.59;173156;28;955;-79
2022/02/01 00:52:39;;;;;;;12.25;3.88;;;-2.50;99.90;;;-3.06;79.16;96733.97;172822;28;1216;-80
2022/02/01 00:52:45;;;;;;;11.13;3.87;;;-2.50;99.90;;;-2.96;78.94;96743.78;172465;28;938;-79
2022/02/01 00:52:51;;;;;;;10.80;3.98;;;-2.50;99.90;;;-3.14;79.05;96723.22;172691;28;1317;-79
2022/02/01 00:52:57;;;;;;;10.80;4.20;;;-2.50;99.90;;;-3.09;79.27;96723.69;173368;28;1769;-79
2022/02/01 00:53:03;;;;;;;10.83;4.47;;;-2.60;99.90;;;-2.87;79.37;96770.22;172119;28;1676;-78
2022/02/01 00:53:10;;;;;;;10.30;4.57;;;-2.60;99.90;;;-3.38;79.58;96690.13;173163;28;1276;-79
2022/02/01 00:53:16;;;;;;;10.40;4.53;;;-2.60;99.90;;;-3.39;79.26;96677.91;172612;28;1013;-79
2022/02/01 00:53:28;;;;;;;10.30;4.57;;;-2.60;99.90;;;-3.05;79.59;96735.63;173001;28;1485;-79
2022/02/01 00:53:37;;;;;;;9.20;4.28;;;-2.60;99.90;;;-2.97;79.49;96742.94;174408;28;1318;-79
2022/02/01 00:53:43;;;;;;;9.23;4.10;;;-2.60;99.90;;;-2.96;79.12;96742.00;173115;28;1682;-80
2022/02/01 00:53:49;;;;;;;9.70;4.00;;;-2.60;99.90;;;-2.91;79.50;96755.63;172524;28;1336;-80
2022/02/01 00:53:55;;;;;;;9.27;3.95;;;-2.60;99.90;;;-2.95;79.40;96746.28;172597;28;923;-79
2022/02/01 00:54:01;;;;;;;9.90;4.15;;;-2.60;99.90;;;-2.93;79.32;96746.16;172554;28;1441;-79
2022/02/01 00:54:08;;;;;;;9.13;4.03;;;-2.60;99.90;;;-2.94;79.20;96749.75;173152;28;1336;-79
2022/02/01 00:54:15;;;;;;;10.10;4.20;;;-2.60;99.90;;;-2.92;79.07;96759.22;172748;28;1191;-79
2022/02/01 00:54:21;;;;;;;9.48;4.20;;;-2.60;99.90;;;-3.08;79.42;96725.38;171873;28;1377;-78
2022/02/01 00:54:28;;;;;;;9.73;4.03;;;-2.60;99.90;;;-2.95;79.35;96743.63;171797;28;1167;-78
2022/02/01 00:54:34;;;;;;;8.82;4.08;;;-2.60;99.90;;;-2.82;79.14;96768.03;171881;28;1537;-79
2022/02/01 00:54:41;;;;;;;8.93;4.20;;;-2.60;99.90;;;-3.17;79.20;96707.69;171687;28;1332;-79
2022/02/01 00:54:47;;;;;;;9.08;4.20;;;-2.60;99.90;;;-2.81;79.54;96767.09;172498;28;1345;-80
2022/02/01 00:54:53;;;;;;;10.73;4.43;;;-2.60;99.90;;;-3.06;79.40;96722.63;172972;28;1327;-79
2022/02/01 00:54:59;;;;;;;11.63;4.50;;;-2.60;99.90;;;-2.91;79.27;96752.16;172542;28;1295;-80
2022/02/01 00:55:08;;;;;;;12.15;4.47;;;-2.60;99.90;;;-2.81;79.50;96767.09;172991;28;1219;-79
2022/02/01 00:55:14;;;;;;;12.27;4.17;;;-2.60;99.90;;;-2.97;79.69;96742.94;173746;28;1499;-79
2022/02/01 00:55:20;;;;;;;11.48;4.18;;;-2.60;99.90;;;-2.81;79.84;96768.88;174101;28;1074;-79
2022/02/01 00:55:26;;;;;;;10.07;4.00;;;-2.60;99.90;;;-2.94;79.82;96747.09;172492;28;1494;-79
2022/02/01 00:55:32;;;;;;;9.93;3.85;;;-2.60;99.90;;;-2.91;79.96;96754.78;172691;28;1336;-79
2022/02/01 00:55:38;;;;;;;9.18;3.92;;;-2.60;99.90;;;-2.94;79.36;96753.22;172574;28;1203;-79
2022/02/01 00:55:44;;;;;;;9.18;4.18;;;-2.60;99.90;;;-2.98;79.76;96740.41;171903;28;1008;-79
2022/02/01 00:55:50;;;;;;;10.13;4.25;;;-2.60;99.90;;;-2.83;79.74;96770.78;173201;28;1344;-78
2022/02/01 00:55:58;;;;;;;11.27;4.38;;;-2.60;99.90;;;-2.92;79.65;96745.19;173420;28;1574;-79
2022/02/01 00:56:04;;;;;;;11.48;4.45;;;-2.60;99.90;;;-3.15;79.89;96713.63;173105;28;1441;-79
2022/02/01 00:56:10;;;;;;;11.80;4.33;;;-2.60;99.90;;;-2.81;79.71;96771.53;173225;28;1027;-79
2022/02/01 00:56:17;;;;;;;12.10;4.16;;;-2.60;99.90;;;-2.81;79.74;96774.16;171185;28;864;-79
2022/02/01 00:56:23;;;;;;;12.20;4.03;;;-2.60;99.90;;;-2.81;79.60;96771.53;171934;28;1470;-79
2022/02/01 00:56:29;;;;;;;11.60;4.10;;;-2.60;99.90;;;-2.80;79.80;96767.94;172578;28;1187;-79
2022/02/01 00:56:35;;;;;;;13.02;4.14;;;-2.60;99.90;;;-2.85;79.68;96760.38;171204;28;1601;-79
2022/02/01 00:56:42;;;;;;;13.23;4.20;;;-2.60;99.90;;;-2.78;79.47;96766.84;173028;28;1199;-78
2022/02/01 00:56:48;;;;;;;12.93;4.30;;;-2.50;99.90;;;-2.84;79.48;96763.84;172431;28;1284;-79
2022/02/01 00:56:54;;;;;;;12.65;4.35;;;-2.60;99.90;;;-2.80;79.43;96765.31;172513;28;1076;-79
2022/02/01 00:57:00;;;;;;;11.30;4.20;;;-2.60;99.90;;;-3.06;79.32;96722.63;171905;28;1418;-79
2022/02/01 00:57:10;;;;;;;11.00;4.10;;;-2.60;99.90;;;-2.78;79.42;96766.00;173707;28;1349;-80
2022/02/01 00:57:17;;;;;;;9.81;4.14;;;-2.60;99.90;;;-2.78;79.10;96768.63;173909;28;1014;-79
2022/02/01 00:57:23;;;;;;;8.63;4.03;;;-2.60;99.90;;;-2.87;79.13;96754.41;173287;28;1314;-79
2022/02/01 00:57:29;;;;;;;9.38;4.25;;;-2.60;99.90;;;-3.02;79.44;96735.41;171759;28;1072;-78
2022/02/01 00:57:36;;;;;;;8.20;4.20;;;-2.60;99.90;;;-2.81;79.23;96769.72;172522;28;1393;-79
2022/02/01 00:57:42;;;;;;;9.43;4.43;;;-2.60;99.90;;;-2.83;79.38;96769.00;173859;28;1297;-80
2022/02/01 00:57:48;;;;;;;10.35;4.60;;;-2.60;99.90;;;-2.83;79.14;96762.91;172569;28;1392;-80
2022/02/01 00:57:54;;;;;;;10.57;4.70;;;-2.60;99.90;;;-2.81;79.27;96767.09;173912;28;1494;-79
2022/02/01 00:58:00;;;;;;;11.13;4.65;;;-2.60;99.90;;;-2.93;79.39;96746.16;173581;28;1467;-79
2022/02/01 00:58:07;;;;;;;11.83;4.77;;;-2.60;99.90;;;-2.77;79.37;96772.94;173268;28;1268;-79
2022/02/01 00:58:13;;;;;;;10.62;4.46;;;-2.60;99.90;;;-2.94;79.45;96745.31;172065;28;1455;-79
2022/02/01 00:58:19;;;;;;;9.50;4.28;;;-2.60;99.90;;;-3.04;79.49;96725.94;171818;28;1235;-78
2022/02/01 00:58:25;;;;;;;9.67;4.23;;;-2.60;99.90;;;-2.87;79.30;96753.56;172434;28;1414;-78
2022/02/01 00:58:31;;;;;;;9.26;4.20;;;-2.60;99.90;;;-3.23;79.21;96697.63;172648;28;907;-79
2022/02/01 00:58:38;;;;;;;9.50;4.13;;;-2.60;99.90;;;-3.01;79.56;96728.34;173596;28;1346;-79
2022/02/01 00:58:45;;;;;;;10.36;4.34;;;-2.60;99.90;;;-2.91;79.14;96745.09;173138;28;1554;-79
2022/02/01 00:58:51;;;;;;;11.03;4.57;;;-2.60;99.90;;;-3.17;79.31;96701.56;171529;28;1571;-79
2022/02/01 00:58:57;;;;;;;11.20;4.65;;;-2.60;99.90;;;-3.13;79.33;96716.16;172503;28;1328;-79
2022/02/01 00:59:03;;;;;;;11.40;4.53;;;-2.60;99.90;;;-3.18;78.98;96705.16;172284;28;1295;-79
2022/02/01 00:59:09;;;;;;;10.80;4.50;;;-2.60;99.90;;;-2.91;79.47;96744.25;171944;28;847;-79
2022/02/01 00:59:15;;;;;;;12.32;4.22;;;-2.60;99.90;;;-3.20;78.84;96702.63;171382;28;946;-79
2022/02/01 00:59:21;;;;;;;12.23;4.13;;;-2.60;99.90;;;-2.89;79.13;96755.47;172621;28;1066;-79
2022/02/01 00:59:27;;;;;;;12.17;4.07;;;-2.60;99.90;;;-2.90;78.96;96752.00;171789;28;1304;-79
2022/02/01 00:59:33;;;;;;;11.40;4.10;;;-2.60;99.90;;;-2.81;79.24;96763.63;171796;28;1034;-79
2022/02/01 00:59:39;;;;;;;10.57;3.95;;;-2.60;99.90;;;-3.19;78.91;96706.94;172515;28;1200;-80
2022/02/01 00:59:45;;;;;;;8.88;3.94;;;-2.60;99.90;;;-2.79;79.03;96769.59;172365;28;1005;-79
2022/02/01 00:59:51;;;;;;;8.23;3.70;;;-2.60;99.90;;;-2.82;78.98;96760.16;173110;28;1224;-79
2022/02/01 00:59:57;;;;;;;8.00;3.63;;;-2.60;99.90;;;-2.79;79.26;96766.94;172490;28;1044;-79
2022/02/01 01:00:08;;;;;;;7.93;3.55;;;-2.60;99.90;;;-2.91;78.93;96739.81;172584;28;1303;-79
2022/02/01 01:00:15;;;;;;;8.60;3.71;;;-2.60;99.90;;;-2.88;78.91;96755.38;173769;28;1342;-79
2022/02/01 01:00:21;;;;;;;9.63;4.13;;;-2.60;99.90;;;-2.85;78.95;96762.19;174878;28;1471;-79
2022/02/01 01:00:27;;;;;;;10.40;4.34;;;-2.60;99.90;;;-2.83;78.72;96763.72;173133;28;1130;-79
2022/02/01 01:00:33;;;;;;;10.73;4.47;;;-2.60;99.90;;;-2.82;78.62;96765.41;174079;28;1468;-78
2022/02/01 01:00:39;;;;;;;11.10;4.78;;;-2.60;99.90;;;-2.87;78.60;96759.69;173964;28;876;-79
2022/02/01 01:00:45;;;;;;;11.07;4.90;;;-2.60;99.90;;;-3.05;79.06;96737.44;173157;28;1287;-78
2022/02/01 01:00:51;;;;;;;9.90;4.75;;;-2.60;99.90;;;-2.95;78.63;96748.91;172230;28;1321;-79
2022/02/01 01:00:57;;;;;;;9.80;4.70;;;-2.60;99.90;;;-2.95;78.64;96754.16;172630;28;876;-79
2022/02/01 01:01:04;;;;;;;9.50;4.60;;;-2.60;99.90;;;-2.96;78.85;96755.16;172298;28;1115;-80
2022/02/01 01:01:09;;;;;;;9.32;4.47;;;-2.70;99.90;;;-2.92;79.33;96756.56;171838;28;1394;-80
2022/02/01 01:01:15;;;;;;;9.85;4.43;;;-2.70;99.90;;;-3.16;79.10;96719.03;171778;28;1000;-79
2022/02/01 01:01:22;;;;;;;9.63;4.30;;;-2.60;99.90;;;-3.05;79.24;96740.91;172507;28;1219;-79
2022/02/01 01:01:27;;;;;;;9.27;4.20;;;-2.60;99.90;;;-2.84;79.34;96769.13;173172;28;1045;-79
2022/02/01 01:01:34;;;;;;;9.90;4.28;;;-2.60;99.90;;;-2.91;79.49;96757.41;173329;28;926;-79
2022/02/01 01:01:40;;;;;;;11.40;4.35;;;-2.60;99.90;;;-2.94;79.61;96755.00;173976;28;1485;-78
2022/02/01 01:01:46;;;;;;;11.05;4.50;;;-2.60;99.90;;;-2.83;79.75;96769.00;172027;28;992;-79
2022/02/01 01:01:52;;;;;;;12.13;4.60;;;-2.60;99.90;;;-3.06;80.02;96733.97;172594;28;1033;-79
2022/02/01 01:01:58;;;;;;;11.94;4.62;;;-2.60;99.90;;;-2.89;80.26;96758.94;173031;28;1398;-80
2022/02/01 01:02:05;;;;;;;11.10;4.50;;;-2.60;99.90;;;-2.92;80.17;96745.19;172521;28;1236;-79
2022/02/01 01:02:11;;;;;;;8.43;4.23;;;-2.60;99.90;;;-2.90;79.98;96759.91;173433;28;1417;-80
2022/02/01 01:02:17;;;;;;;8.82;3.92;;;-2.60;99.90;;;-2.90;79.88;96743.28;173009;28;1556;-79
2022/02/01 01:02:23;;;;;;;8.87;3.87;;;-2.60;99.90;;;-2.91;79.79;96749.50;173119;28;1720;-78
2022/02/01 01:02:29;;;;;;;9.40;3.92;;;-2.60;99.90;;;-2.95;80.31;96746.28;172238;28;1356;-79
2022/02/01 01:02:35;;;;;;;10.13;3.88;;;-2.60;99.90;;;-2.80;80.21;96781.94;171869;28;1236;-79
2022/02/01 01:02:41;;;;;;;10.84;4.04;;;-2.60;99.90;;;-2.84;80.39;96763.84;173164;28;1466;-80
2022/02/01 01:02:47;;;;;;;10.82;4.10;;;-2.60;99.90;;;-2.95;80.39;96745.47;172043;28;1318;-79
2022/02/01 01:02:53;;;;;;;11.10;4.25;;;-2.60;99.90;;;-3.14;80.23;96717.94;173023;28;1382;-79
2022/02/01 01:02:59;;;;;;;11.32;4.15;;;-2.60;99.90;;;-3.13;80.57;96708.25;172591;28;880;-79
2022/02/01 01:03:05;;;;;;;11.95;4.10;;;-2.60;99.90;;;-3.04;80.27;96723.31;173356;28;1193;-79